Time;durP1;ratioP1;P1;durP2;ratioP2;P2;SDS_P1;SDS_P2;PMS_P1;PMS_P2;Temp;Humidity;BMP_temperature;BMP_pressure;BME280_temperature;BME280_humidity;BME280_pressure;Samples;Min_cycle;Max_cycle;Signal;HPM_P1;HPM_P2
2021/12/10 00:01:33;;;;;;;18.17;6.72;;;;;;;4.78;100.00;99561.38;5026012;28;20095;-74
2021/12/10 00:04:02;;;;;;;20.98;8.25;;;;;;;4.79;100.00;99567.63;5032507;28;20053;-74
2021/12/10 00:07:04;;;;;;;9.60;3.63;;;;;;;4.78;100.00;99561.38;5027296;28;20054;-77
2021/12/10 00:09:44;;;;;;;24.58;9.13;;;;;;;4.72;100.00;99549.19;5013208;28;20051;-75
2021/12/10 00:12:23;;;;;;;21.35;8.38;;;;;;;4.78;100.00;99547.66;5026658;28;20128;-74
2021/12/10 00:14:50;;;;;;;15.18;6.18;;;;;;;4.77;100.00;99548.84;5023353;28;20049;-77
2021/12/10 00:17:19;;;;;;;24.50;8.20;;;;;;;4.74;100.00;99537.84;5028021;28;20054;-74
2021/12/10 00:19:50;;;;;;;6.38;2.65;;;;;;;4.70;100.00;99537.84;5024649;28;20080;-75
2021/12/10 00:22:22;;;;;;;19.50;7.90;;;;;;;4.69;100.00;99538.25;5027294;28;20132;-75
2021/12/10 00:24:50;;;;;;;21.75;9.00;;;;;;;4.71;100.00;99538.63;5028558;28;20060;-74
2021/12/10 00:27:27;;;;;;;16.98;7.07;;;;;;;4.68;100.00;99534.72;5029340;28;20108;-74
2021/12/10 00:30:04;;;;;;;9.95;4.78;;;;;;;4.59;100.00;99528.03;5045996;28;20081;-74
2021/12/10 00:32:36;;;;;;;16.35;5.65;;;;;;;4.60;100.00;99513.94;5029308;28;20045;-75
2021/12/10 00:35:16;;;;;;;13.07;6.05;;;;;;;4.57;100.00;99511.97;5028958;28;20053;-75
2021/12/10 00:37:43;;;;;;;14.27;6.00;;;;;;;4.54;100.00;99507.28;5027308;28;20059;-74
2021/12/10 00:40:12;;;;;;;12.43;5.32;;;;;;;4.50;100.00;99497.47;5028866;28;20561;-75
2021/12/10 00:42:39;;;;;;;15.75;7.05;;;;;;;4.49;100.00;99504.13;5022954;28;20089;-75
2021/12/10 00:45:09;;;;;;;7.03;2.90;;;;;;;4.39;100.00;99500.16;5027837;28;20050;-74
2021/12/10 00:47:37;;;;;;;13.18;5.50;;;;;;;4.37;100.00;99479.81;5028845;28;20132;-75
2021/12/10 00:50:07;;;;;;;17.55;8.43;;;;;;;4.41;100.00;99484.13;5038357;28;20051;-75
2021/12/10 00:52:34;;;;;;;19.92;8.40;;;;;;;4.40;100.00;99477.09;5037516;28;20132;-74
2021/12/10 00:55:01;;;;;;;19.67;7.68;;;;;;;4.35;100.00;99469.22;5040138;28;20569;-75
2021/12/10 00:57:27;;;;;;;21.13;8.57;;;;;;;4.36;100.00;99476.28;5029261;28;20271;-75
2021/12/10 00:59:54;;;;;;;18.55;7.88;;;;;;;4.33;100.00;99470.78;5026374;28;20053;-74
2021/12/10 01:02:23;;;;;;;17.27;7.60;;;;;;;4.26;100.00;99460.59;5029170;28;20045;-73
2021/12/10 01:04:54;;;;;;;17.92;7.28;;;;;;;4.29;100.00;99470.78;5028996;28;20049;-75
2021/12/10 01:07:24;;;;;;;19.13;8.88;;;;;;;4.24;100.00;99459.41;5023895;28;20104;-73
2021/12/10 01:09:54;;;;;;;20.77;8.90;;;;;;;4.29;100.00;99467.28;5020721;28;20441;-73
2021/12/10 01:12:36;;;;;;;18.77;8.93;;;;;;;4.23;100.00;99453.16;5023605;28;20051;-74
2021/12/10 01:28:52;;;;;;;20.63;9.40;;;;;;;4.34;100.00;99439.50;5025266;28;20140;-74
2021/12/10 01:31:19;;;;;;;21.73;7.13;;;;;;;4.29;100.00;99431.69;5036677;28;20064;-74
2021/12/10 01:33:49;;;;;;;17.80;8.15;;;;;;;4.32;100.00;99431.66;5019389;28;20179;-72
2021/12/10 01:36:16;;;;;;;19.73;8.70;;;;;;;4.33;100.00;99427.78;5019562;28;20091;-75
2021/12/10 01:38:46;;;;;;;19.95;7.93;;;;;;;4.35;100.00;99416.41;5020752;28;20560;-75
2021/12/10 01:41:16;;;;;;;20.88;8.93;;;;;;;4.39;100.00;99407.03;5025645;28;20059;-75
2021/12/10 01:43:47;;;;;;;18.98;7.72;;;;;;;4.41;100.00;99410.19;5028426;28;20055;-74
2021/12/10 01:46:24;;;;;;;21.23;8.82;;;;;;;4.39;100.00;99396.09;5040958;28;20482;-74
2021/12/10 01:48:54;;;;;;;18.85;8.07;;;;;;;4.45;100.00;99388.28;5030010;28;20080;-74
2021/12/10 01:51:26;;;;;;;18.48;7.60;;;;;;;4.45;100.00;99393.75;5032374;28;20132;-74
2021/12/10 01:53:58;;;;;;;19.20;8.10;;;;;;;4.50;100.00;99390.66;5031778;28;20052;-74
2021/12/10 01:56:28;;;;;;;19.63;7.85;;;;;;;4.55;100.00;99396.53;5032186;28;20060;-73
2021/12/10 01:58:56;;;;;;;18.42;7.32;;;;;;;4.62;100.00;99395.75;5033295;28;20045;-74
2021/12/10 02:01:31;;;;;;;6.25;2.58;;;;;;;4.59;100.00;99391.06;5044358;28;20049;-74
2021/12/10 02:04:01;;;;;;;17.15;6.85;;;;;;;4.69;100.00;99395.78;5052768;28;20111;-74
2021/12/10 02:06:28;;;;;;;8.77;4.18;;;;;;;4.60;100.00;99393.41;5036338;28;20061;-74
2021/12/10 02:08:55;;;;;;;11.88;4.25;;;;;;;4.64;100.00;99399.69;5032928;28;20053;-73
2021/12/10 02:11:22;;;;;;;9.23;3.88;;;;;;;4.65;100.00;99393.03;5031057;28;20132;-74
2021/12/10 02:13:49;;;;;;;7.07;2.80;;;;;;;4.62;100.00;99380.09;5032163;28;20156;-73
2021/12/10 02:16:16;;;;;;;10.00;4.57;;;;;;;4.66;100.00;99380.13;5047765;28;20059;-74
2021/12/10 02:18:43;;;;;;;14.32;6.03;;;;;;;4.62;100.00;99371.88;5042503;28;20139;-73
2021/12/10 02:21:09;;;;;;;20.30;6.57;;;;;;;4.64;100.00;99369.56;5031922;28;20052;-74
2021/12/10 02:23:41;;;;;;;18.45;7.03;;;;;;;4.64;100.00;99371.50;5030311;28;20190;-74
2021/12/10 02:26:11;;;;;;;10.13;3.47;;;;;;;4.59;100.00;99364.44;5034024;28;20059;-74
2021/12/10 02:28:40;;;;;;;13.50;5.63;;;;;;;4.58;100.00;99356.59;5041482;28;20049;-74
2021/12/10 02:31:09;;;;;;;14.98;6.50;;;;;;;4.53;100.00;99365.22;5049028;28;20057;-73
2021/12/10 02:33:36;;;;;;;8.95;3.35;;;;;;;4.48;100.00;99360.91;5044054;28;20042;-74
2021/12/10 02:36:04;;;;;;;10.95;5.25;;;;;;;4.46;100.00;99359.75;5033996;28;20136;-75
2021/12/10 02:38:31;;;;;;;18.83;5.70;;;;;;;4.43;100.00;99357.78;5030179;28;20049;-76
2021/12/10 02:40:57;;;;;;;17.05;6.50;;;;;;;4.42;100.00;99350.75;5030515;28;20437;-74
2021/12/10 02:43:24;;;;;;;6.88;3.35;;;;;;;4.37;100.00;99338.22;5030657;28;20136;-73
2021/12/10 02:45:56;;;;;;;18.83;6.57;;;;;;;4.43;100.00;99341.34;5031820;28;20053;-73
2021/12/10 02:48:24;;;;;;;19.30;6.90;;;;;;;4.37;100.00;99335.47;5018477;28;20111;-75
2021/12/10 02:50:54;;;;;;;18.90;8.05;;;;;;;4.38;100.00;99330.75;5045609;28;20132;-72
2021/12/10 02:53:27;;;;;;;19.73;6.60;;;;;;;4.35;100.00;99326.84;5030591;28;20405;-73
2021/12/10 02:55:57;;;;;;;23.08;8.23;;;;;;;4.33;100.00;99315.53;5034469;28;20140;-74
2021/12/10 02:58:24;;;;;;;14.45;5.88;;;;;;;4.32;100.00;99315.91;5044671;28;20060;-76
2021/12/10 03:00:58;;;;;;;8.10;3.50;;;;;;;4.27;100.00;99314.34;5030781;28;20049;-74
2021/12/10 03:03:25;;;;;;;13.20;5.85;;;;;;;4.27;100.00;99305.31;5032162;28;20764;-74
2021/12/10 03:05:52;;;;;;;11.13;5.07;;;;;;;4.27;100.00;99295.16;5031651;28;20053;-73
2021/12/10 03:08:19;;;;;;;17.92;7.30;;;;;;;4.28;100.00;99291.25;5031088;28;20049;-76
2021/12/10 03:10:47;;;;;;;15.48;5.70;;;;;;;4.24;100.00;99285.00;5042658;28;20041;-76
2021/12/10 03:13:14;;;;;;;12.75;5.32;;;;;;;4.22;100.00;99283.81;5031498;28;20132;-76
2021/12/10 03:15:43;;;;;;;20.10;6.88;;;;;;;4.21;100.00;99279.50;5029848;28;20128;-74
2021/12/10 03:18:12;;;;;;;14.70;6.28;;;;;;;4.15;100.00;99273.63;5030801;28;20050;-75
2021/12/10 03:20:39;;;;;;;18.50;6.35;;;;;;;4.15;100.00;99265.41;5031187;28;20049;-73
2021/12/10 03:23:07;;;;;;;3.25;1.98;;;;;;;4.16;100.00;99264.25;5029438;28;20049;-73
2021/12/10 03:25:33;;;;;;;17.27;6.50;;;;;;;4.14;100.00;99252.91;5036118;28;20132;-73
2021/12/10 03:28:00;;;;;;;15.13;5.50;;;;;;;4.15;100.00;99248.22;5045236;28;20421;-74
2021/12/10 03:30:32;;;;;;;19.58;6.53;;;;;;;4.13;100.00;99240.41;5044290;28;20053;-73
2021/12/10 03:32:59;;;;;;;20.88;6.20;;;;;;;4.13;100.00;99226.72;5023387;28;20103;-73
2021/12/10 03:35:32;;;;;;;16.40;5.43;;;;;;;4.14;100.00;99225.53;5030117;28;20077;-73
2021/12/10 03:38:04;;;;;;;18.48;5.38;;;;;;;4.08;100.00;99229.81;5031870;28;20053;-75
2021/12/10 03:40:31;;;;;;;14.90;5.00;;;;;;;4.11;100.00;99220.84;5034050;28;20057;-73
2021/12/10 03:42:58;;;;;;;12.73;4.75;;;;;;;4.08;100.00;99224.34;5029311;28;20433;-73
2021/12/10 03:45:33;;;;;;;16.02;4.07;;;;;;;4.08;100.00;99218.88;5039488;28;20387;-75
2021/12/10 03:48:02;;;;;;;14.77;5.53;;;;;;;4.09;100.00;99204.00;5047914;28;20059;-74
2021/12/10 03:50:31;;;;;;;15.65;4.88;;;;;;;4.04;100.00;99204.41;5034424;28;20059;-76
2021/12/10 03:52:59;;;;;;;13.75;4.82;;;;;;;4.07;100.00;99206.38;5029205;28;20140;-73
2021/12/10 03:55:27;;;;;;;12.38;4.60;;;;;;;4.03;100.00;99205.59;5030770;28;20080;-76
2021/12/10 03:57:56;;;;;;;16.65;5.25;;;;;;;4.02;100.00;99214.19;5030000;28;20132;-77
2021/12/10 04:00:26;;;;;;;14.77;4.47;;;;;;;3.99;100.00;99199.34;5031336;28;20064;-74
2021/12/10 04:02:54;;;;;;;14.27;4.82;;;;;;;3.96;100.00;99188.38;5027859;28;20115;-76
2021/12/10 04:05:22;;;;;;;15.32;4.72;;;;;;;3.96;100.00;99193.84;5029934;28;20119;-74
2021/12/10 04:07:49;;;;;;;14.55;4.43;;;;;;;3.91;100.00;99194.25;5040674;28;20049;-74
2021/12/10 04:10:16;;;;;;;14.88;4.85;;;;;;;3.88;100.00;99187.59;5028247;28;20045;-74
2021/12/10 04:12:43;;;;;;;19.60;4.78;;;;;;;3.82;100.00;99180.94;5017060;28;20054;-75
2021/12/10 04:15:10;;;;;;;18.65;5.60;;;;;;;3.77;100.00;99172.31;5034537;28;20544;-75
2021/12/10 04:17:38;;;;;;;15.93;5.40;;;;;;;3.77;100.00;99177.78;5036972;28;20048;-74
2021/12/10 04:20:08;;;;;;;18.23;5.20;;;;;;;3.71;100.00;99171.94;5035634;28;20049;-76
2021/12/10 04:22:35;;;;;;;10.43;4.50;;;;;;;3.68;100.00;99171.94;5029844;28;20095;-76
2021/12/10 04:25:07;;;;;;;12.20;4.40;;;;;;;3.66;100.00;99177.00;5029819;28;20092;-73
2021/12/10 04:27:35;;;;;;;14.07;5.35;;;;;;;3.63;100.00;99167.63;5028788;28;20136;-74
2021/12/10 04:30:05;;;;;;;13.98;4.75;;;;;;;3.58;100.00;99162.53;5029544;28;20057;-73
2021/12/10 04:32:33;;;;;;;14.07;5.18;;;;;;;3.55;100.00;99159.78;5029317;28;20481;-74
2021/12/10 04:35:00;;;;;;;14.40;5.35;;;;;;;3.50;100.00;99150.00;5041882;28;20045;-74
2021/12/10 04:37:26;;;;;;;16.38;5.43;;;;;;;3.48;100.00;99152.34;5029036;28;20601;-73
2021/12/10 04:39:53;;;;;;;11.90;4.28;;;;;;;3.47;100.00;99150.03;5029542;28;20057;-74
2021/12/10 04:42:23;;;;;;;16.30;4.25;;;;;;;3.39;100.00;99140.22;5028604;28;20492;-74
2021/12/10 04:44:55;;;;;;;11.73;4.00;;;;;;;3.40;100.00;99142.56;5029703;28;20049;-74
2021/12/10 04:47:21;;;;;;;13.10;4.13;;;;;;;3.35;100.00;99142.97;5028371;28;20778;-74
2021/12/10 04:49:49;;;;;;;24.38;5.05;;;;;;;3.34;100.00;99146.09;5036766;28;20081;-73
2021/12/10 04:52:16;;;;;;;17.23;4.97;;;;;;;3.33;100.00;99144.50;5035099;28;20413;-74
2021/12/10 04:54:43;;;;;;;12.02;4.15;;;;;;;3.26;100.00;99144.47;5048408;28;20502;-76
2021/12/10 04:57:10;;;;;;;18.80;5.15;;;;;;;3.24;100.00;99142.13;5034490;28;20120;-73
2021/12/10 04:59:38;;;;;;;12.30;4.80;;;;;;;3.21;100.00;99132.00;5029632;28;20091;-73
2021/12/10 05:02:09;;;;;;;16.02;4.53;;;;;;;3.21;100.00;99128.47;5041393;28;20510;-74
2021/12/10 05:04:35;;;;;;;14.40;4.72;;;;;;;3.21;100.00;99129.25;5040822;28;20048;-74
2021/12/10 05:07:04;;;;;;;12.52;4.25;;;;;;;3.20;100.00;99122.22;5036037;28;20056;-76
2021/12/10 05:09:32;;;;;;;13.50;4.30;;;;;;;3.16;100.00;99118.69;5031908;28;20053;-75
2021/12/10 05:12:01;;;;;;;9.73;3.78;;;;;;;3.18;100.00;99119.09;5029013;28;20132;-75
2021/12/10 05:14:30;;;;;;;15.60;4.78;;;;;;;3.15;100.00;99114.41;5039147;28;20148;-75
2021/12/10 05:17:03;;;;;;;14.48;3.92;;;;;;;3.13;100.00;99114.00;5027868;28;20111;-77
2021/12/10 05:19:31;;;;;;;17.58;4.60;;;;;;;3.17;100.00;99100.34;5027952;28;20056;-76
2021/12/10 05:22:00;;;;;;;13.07;3.80;;;;;;;3.12;100.00;99087.84;5045257;28;20142;-75
2021/12/10 05:24:28;;;;;;;15.27;4.05;;;;;;;3.14;100.00;99090.94;5045842;28;20045;-75
2021/12/10 05:26:56;;;;;;;13.20;3.78;;;;;;;3.12;100.00;99085.13;5028076;28;20049;-75
2021/12/10 05:29:23;;;;;;;10.45;3.10;;;;;;;3.10;100.00;99079.25;5028411;28;20071;-73
2021/12/10 05:31:52;;;;;;;12.90;3.70;;;;;;;3.04;100.00;99066.34;5028821;28;20049;-75
2021/12/10 05:34:18;;;;;;;9.88;3.38;;;;;;;3.05;100.00;99067.91;5028417;28;20042;-74
2021/12/10 05:36:45;;;;;;;10.07;3.53;;;;;;;2.99;100.00;99070.25;5031659;28;20081;-74
2021/12/10 05:39:14;;;;;;;17.38;3.85;;;;;;;3.02;100.00;99066.75;5027183;28;20049;-73
2021/12/10 05:41:41;;;;;;;11.77;3.88;;;;;;;3.04;100.00;99064.41;5044897;28;20474;-72
2021/12/10 05:44:08;;;;;;;10.65;3.28;;;;;;;3.03;100.00;99054.63;5040052;28;20063;-74
2021/12/10 05:46:37;;;;;;;12.48;3.55;;;;;;;3.05;100.00;99046.06;5045253;28;20497;-73
2021/12/10 05:49:04;;;;;;;8.45;2.97;;;;;;;3.05;100.00;99051.50;5025963;28;20072;-73
2021/12/10 05:51:31;;;;;;;15.45;3.35;;;;;;;3.01;100.00;99042.53;5034810;28;20498;-73
2021/12/10 05:53:58;;;;;;;9.32;2.92;;;;;;;3.02;100.00;99044.88;5027675;28;20087;-74
2021/12/10 05:56:24;;;;;;;15.10;4.25;;;;;;;3.02;100.00;99025.75;5035531;28;20512;-74
2021/12/10 05:58:51;;;;;;;15.48;4.20;;;;;;;3.00;100.00;99022.63;5027545;28;20153;-74
2021/12/10 06:01:20;;;;;;;12.68;2.95;;;;;;;3.00;100.00;99022.63;5028448;28;20244;-75
2021/12/10 06:03:53;;;;;;;13.25;3.97;;;;;;;3.01;100.00;99021.47;5042201;28;20051;-74
2021/12/10 06:06:28;;;;;;;14.82;3.70;;;;;;;3.00;100.00;99019.88;5048753;28;20053;-74
2021/12/10 06:08:56;;;;;;;13.17;3.30;;;;;;;3.03;100.00;99019.13;5029261;28;20084;-74
2021/12/10 06:11:24;;;;;;;16.33;3.83;;;;;;;3.03;100.00;99010.16;5025581;28;20387;-74
2021/12/10 06:13:52;;;;;;;15.00;3.70;;;;;;;3.00;100.00;99003.50;5028024;28;20502;-75
2021/12/10 06:16:19;;;;;;;13.98;3.28;;;;;;;2.99;100.00;99003.88;5027433;28;20187;-75
2021/12/10 06:18:47;;;;;;;17.08;4.10;;;;;;;2.99;100.00;99010.13;5028116;28;20057;-74
2021/12/10 06:21:14;;;;;;;14.80;3.88;;;;;;;2.96;100.00;99002.72;5026475;28;20241;-73
2021/12/10 06:23:41;;;;;;;10.75;3.47;;;;;;;2.94;100.00;98994.13;5030626;28;20130;-73
2021/12/10 06:26:08;;;;;;;14.80;3.75;;;;;;;2.94;100.00;98996.88;5030995;28;20081;-75
2021/12/10 06:28:39;;;;;;;14.43;3.33;;;;;;;2.91;100.00;98996.84;5030533;28;20064;-76
2021/12/10 06:31:06;;;;;;;12.07;3.30;;;;;;;2.94;100.00;98980.47;5029018;28;20057;-75
2021/12/10 06:33:33;;;;;;;10.63;3.10;;;;;;;2.95;100.00;98987.50;5031865;28;20573;-74
2021/12/10 06:36:03;;;;;;;15.95;3.65;;;;;;;2.97;100.00;98976.94;5029330;28;20149;-76
2021/12/10 06:38:32;;;;;;;16.40;3.75;;;;;;;2.97;100.00;98990.59;5031104;28;20484;-72
2021/12/10 06:40:59;;;;;;;16.45;4.30;;;;;;;2.96;100.00;98985.56;5030708;28;20514;-74
2021/12/10 06:43:26;;;;;;;13.40;4.47;;;;;;;2.93;100.00;98984.34;5018542;28;20050;-74
2021/12/10 06:45:53;;;;;;;17.67;4.80;;;;;;;2.90;100.00;98989.84;5032975;28;20068;-77
2021/12/10 06:48:23;;;;;;;14.63;3.78;;;;;;;2.85;100.00;98982.78;5042472;28;20072;-75
2021/12/10 06:50:56;;;;;;;11.30;3.33;;;;;;;2.76;100.00;98993.31;5038945;28;20053;-73
2021/12/10 06:53:25;;;;;;;11.98;3.45;;;;;;;2.74;100.00;98982.75;5040737;28;20053;-74
2021/12/10 06:55:52;;;;;;;8.35;3.25;;;;;;;2.74;100.00;98982.00;5032447;28;20602;-75
2021/12/10 06:58:22;;;;;;;15.52;3.30;;;;;;;2.72;100.00;98985.13;5030961;28;20045;-74
2021/12/10 07:00:49;;;;;;;13.25;3.85;;;;;;;2.71;100.00;98988.22;5027418;28;20083;-74
2021/12/10 07:03:21;;;;;;;10.10;3.40;;;;;;;2.68;100.00;98986.28;5032549;28;20055;-75
2021/12/10 07:05:48;;;;;;;7.82;3.55;;;;;;;2.65;100.00;98990.56;5048381;28;20070;-75
2021/12/10 07:08:16;;;;;;;15.73;3.63;;;;;;;2.60;100.00;98985.47;5036184;28;20136;-75
2021/12/10 07:10:43;;;;;;;10.90;3.55;;;;;;;2.58;100.00;98965.19;5044806;28;20481;-77
2021/12/10 07:13:10;;;;;;;15.57;3.88;;;;;;;2.50;100.00;98966.34;5038841;28;20133;-74
2021/12/10 07:15:40;;;;;;;11.05;2.92;;;;;;;2.45;100.00;98970.22;5030364;28;20078;-75
2021/12/10 07:18:08;;;;;;;12.27;4.63;;;;;;;2.39;100.00;98971.75;5031729;28;20125;-75
2021/12/10 07:20:36;;;;;;;15.10;4.10;;;;;;;2.42;100.00;98973.72;5042827;28;20051;-74
2021/12/10 07:23:02;;;;;;;15.38;3.88;;;;;;;2.36;100.00;98974.44;5030774;28;20053;-74
2021/12/10 07:25:29;;;;;;;11.32;4.20;;;;;;;2.36;100.00;98971.72;5031529;28;20128;-74
2021/12/10 07:27:56;;;;;;;13.68;3.85;;;;;;;2.28;100.00;98968.22;5035308;28;20141;-75
2021/12/10 07:30:25;;;;;;;13.60;3.53;;;;;;;2.25;100.00;98960.00;5050483;28;20072;-74
2021/12/10 07:32:52;;;;;;;12.50;4.00;;;;;;;2.30;100.00;98965.09;5031339;28;20053;-73
2021/12/10 07:35:20;;;;;;;9.82;3.60;;;;;;;2.31;100.00;98963.91;5029910;28;20191;-72
2021/12/10 07:37:47;;;;;;;12.00;4.20;;;;;;;2.33;100.00;98967.81;5032767;28;20425;-75
2021/12/10 07:40:18;;;;;;;13.82;4.78;;;;;;;2.37;100.00;98968.59;5030793;28;20057;-74
2021/12/10 07:42:45;;;;;;;13.73;4.28;;;;;;;2.35;100.00;98970.16;5043234;28;20049;-74
2021/12/10 07:45:12;;;;;;;11.82;3.70;;;;;;;2.34;100.00;98965.88;5029181;28;20084;-74
2021/12/10 07:47:39;;;;;;;12.10;3.28;;;;;;;2.34;100.00;98963.16;5030462;28;20099;-71
2021/12/10 07:50:10;;;;;;;8.13;3.47;;;;;;;2.36;100.00;98966.25;5030227;28;20046;-74
2021/12/10 07:52:37;;;;;;;12.15;4.07;;;;;;;2.31;100.00;98961.97;5034705;28;20107;-75
2021/12/10 07:55:08;;;;;;;11.23;4.38;;;;;;;2.34;100.00;98963.94;5042311;28;20067;-75
2021/12/10 07:57:35;;;;;;;18.67;4.90;;;;;;;2.36;100.00;98958.88;5034200;28;20124;-75
2021/12/10 08:00:05;;;;;;;14.15;4.25;;;;;;;2.38;100.00;98955.75;5039950;28;20080;-73
2021/12/10 08:02:34;;;;;;;16.15;4.93;;;;;;;2.42;100.00;98964.72;5032503;28;20046;-74
2021/12/10 08:05:02;;;;;;;22.48;5.55;;;;;;;2.46;100.00;98971.78;5019745;28;20091;-75
2021/12/10 08:07:28;;;;;;;14.25;4.30;;;;;;;2.49;100.00;98964.75;5029075;28;20054;-74
2021/12/10 08:09:55;;;;;;;16.33;3.95;;;;;;;2.54;100.00;98976.06;5037425;28;20053;-78
2021/12/10 08:12:22;;;;;;;16.52;5.00;;;;;;;2.63;100.00;98970.25;5030339;28;20080;-75
2021/12/10 08:14:53;;;;;;;21.00;4.47;;;;;;;2.71;100.00;98974.59;5020776;28;20060;-76
2021/12/10 08:17:20;;;;;;;19.58;5.45;;;;;;;2.77;100.00;98966.78;5028721;28;20053;-74
2021/12/10 08:19:48;;;;;;;12.95;3.60;;;;;;;2.87;100.00;98971.50;5029844;28;20064;-75
2021/12/10 08:22:15;;;;;;;20.40;5.43;;;;;;;2.95;100.00;98965.66;5029394;28;20046;-75
2021/12/10 08:24:42;;;;;;;18.85;5.13;;;;;;;3.05;100.00;98969.56;5027401;28;20049;-76
2021/12/10 08:27:10;;;;;;;15.38;4.60;;;;;;;3.09;100.00;98953.94;5030712;28;20049;-77
2021/12/10 08:29:36;;;;;;;17.17;4.53;;;;;;;3.18;100.00;98962.53;5029398;28;20055;-74
2021/12/10 08:32:03;;;;;;;10.95;3.95;;;;;;;3.26;100.00;98962.16;5029092;28;20132;-75
2021/12/10 08:34:30;;;;;;;16.73;4.93;;;;;;;3.33;100.00;98951.22;5028867;28;20053;-77
2021/12/10 08:36:57;;;;;;;17.15;4.00;;;;;;;3.41;100.00;98954.72;5031262;28;20171;-75
2021/12/10 08:39:23;;;;;;;12.95;4.18;;;;;;;3.53;100.00;98957.03;5030719;28;20584;-75
2021/12/10 08:41:51;;;;;;;14.95;4.40;;;;;;;3.58;100.00;98959.41;5029590;28;20103;-74
2021/12/10 08:44:17;;;;;;;12.43;3.80;;;;;;;3.69;100.00;98955.47;5028985;28;20532;-76
2021/12/10 08:46:45;;;;;;;12.90;4.32;;;;;;;3.74;100.00;98941.38;5029442;28;20050;-75
2021/12/10 08:49:13;;;;;;;11.25;3.65;;;;;;;3.89;100.00;98948.41;5030339;28;20136;-75
2021/12/10 08:51:43;;;;;;;19.98;4.57;;;;;;;3.97;100.00;98949.13;5029525;28;20049;-74
2021/12/10 08:54:12;;;;;;;13.20;4.00;;;;;;;4.01;100.00;98938.97;5028503;28;20041;-76
2021/12/10 08:56:40;;;;;;;14.45;3.97;;;;;;;4.13;100.00;98941.28;5037609;28;20391;-75
2021/12/10 08:59:08;;;;;;;19.02;4.50;;;;;;;4.22;100.00;98947.88;5030277;28;20102;-75
2021/12/10 09:01:41;;;;;;;12.15;3.50;;;;;;;4.33;99.66;98951.38;5035972;28;20528;-75
2021/12/10 09:04:09;;;;;;;11.57;3.45;;;;;;;4.40;99.00;98951.34;5026060;28;20048;-76
2021/12/10 09:06:38;;;;;;;14.52;3.90;;;;;;;4.48;98.31;98949.31;5026791;28;20045;-75
2021/12/10 09:09:08;;;;;;;12.00;3.88;;;;;;;4.56;98.38;98946.16;5034453;28;20592;-75
2021/12/10 09:11:36;;;;;;;10.95;3.75;;;;;;;4.67;98.44;98952.38;5039770;28;20123;-75
2021/12/10 09:14:19;;;;;;;16.90;4.15;;;;;;;4.80;97.88;98950.72;5020011;28;20041;-77
2021/12/10 09:16:46;;;;;;;11.65;3.40;;;;;;;4.88;96.81;98949.50;5027693;28;20083;-75
2021/12/10 09:19:14;;;;;;;16.83;3.60;;;;;;;5.00;94.16;98951.75;5030354;28;20127;-76
2021/12/10 09:21:43;;;;;;;12.55;3.83;;;;;;;5.04;93.86;98941.53;5028706;28;20053;-75
2021/12/10 09:24:11;;;;;;;17.02;4.68;;;;;;;5.17;93.83;98948.09;5028382;28;20044;-76
2021/12/10 09:26:43;;;;;;;9.15;3.20;;;;;;;5.27;95.09;98947.25;5031197;28;20050;-77
2021/12/10 09:29:12;;;;;;;15.13;3.22;;;;;;;5.39;93.55;98954.19;5034435;28;20080;-74
2021/12/10 09:31:42;;;;;;;13.18;2.97;;;;;;;5.46;90.10;98939.66;5025244;28;20136;-74
2021/12/10 09:34:11;;;;;;;12.80;3.67;;;;;;;5.57;89.60;98946.59;5038754;28;20076;-75
2021/12/10 09:36:38;;;;;;;6.30;2.72;;;;;;;5.61;88.31;98941.88;5030236;28;20099;-74
2021/12/10 09:39:07;;;;;;;14.02;2.90;;;;;;;5.77;87.08;98953.06;5026041;28;20076;-75
2021/12/10 09:41:34;;;;;;;10.88;3.22;;;;;;;5.92;89.41;98940.78;5027661;28;20057;-75
2021/12/10 09:44:02;;;;;;;13.07;3.00;;;;;;;6.05;90.10;98947.31;5031841;28;20059;-75
2021/12/10 09:46:29;;;;;;;8.48;2.45;;;;;;;6.07;87.08;98949.66;5028233;28;20136;-75
2021/12/10 09:48:55;;;;;;;15.48;3.75;;;;;;;6.14;87.32;98942.09;5028355;28;20469;-75
2021/12/10 09:51:28;;;;;;;12.82;2.70;;;;;;;6.25;88.12;98939.22;5028337;28;20061;-75
2021/12/10 09:53:58;;;;;;;12.30;2.75;;;;;;;6.25;86.05;98941.97;5033669;28;20060;-75
2021/12/10 09:56:26;;;;;;;13.30;2.95;;;;;;;6.34;86.74;98943.03;5024912;28;20132;-75
2021/12/10 09:58:54;;;;;;;11.98;2.72;;;;;;;6.39;83.48;98948.09;5042030;28;20052;-75
2021/12/10 10:01:32;;;;;;;8.82;2.75;;;;;;;6.40;83.42;98932.38;5019962;28;20084;-75
2021/12/10 10:04:05;;;;;;;9.77;2.40;;;;;;;6.46;80.99;98942.50;5028158;28;20057;-75
2021/12/10 10:06:36;;;;;;;11.82;3.30;;;;;;;6.46;79.39;98928.75;5031591;28;20725;-76
2021/12/10 10:09:08;;;;;;;7.25;2.33;;;;;;;6.52;79.89;98934.56;5034575;28;20053;-74
2021/12/10 10:11:44;;;;;;;12.00;3.30;;;;;;;6.66;82.41;98937.13;5027758;28;20417;-74
2021/12/10 10:14:11;;;;;;;13.30;2.88;;;;;;;6.67;80.18;98924.94;5031324;28;20049;-76
2021/12/10 10:16:43;;;;;;;3.70;1.63;;;;;;;6.75;78.67;98926.41;5029915;28;20064;-74
2021/12/10 10:19:15;;;;;;;6.78;2.55;;;;;;;6.83;78.69;98925.09;5038816;28;20144;-75
2021/12/10 10:21:48;;;;;;;9.35;2.22;;;;;;;6.85;77.93;98925.47;5042150;28;20063;-74
2021/12/10 10:24:16;;;;;;;9.15;2.70;;;;;;;7.00;79.14;98924.84;5030363;28;20117;-75
2021/12/10 10:26:48;;;;;;;5.45;2.03;;;;;;;7.01;75.98;98928.34;5027440;28;20113;-75
2021/12/10 10:29:19;;;;;;;15.70;3.17;;;;;;;7.18;77.34;98919.84;5029146;28;20140;-75
2021/12/10 10:31:54;;;;;;;10.10;2.47;;;;;;;7.29;78.37;98908.69;5031914;28;20494;-75
2021/12/10 10:34:22;;;;;;;8.27;2.10;;;;;;;7.19;72.89;98917.88;5029256;28;20136;-74
2021/12/10 10:36:49;;;;;;;8.70;2.08;;;;;;;7.31;74.71;98909.00;5028275;28;20057;-74
2021/12/10 10:39:25;;;;;;;5.18;1.50;;;;;;;7.23;72.33;98907.59;5030698;28;20104;-74
2021/12/10 10:41:55;;;;;;;6.68;1.88;;;;;;;7.50;75.80;98916.56;5032895;28;20136;-75
2021/12/10 10:44:45;;;;;;;24.08;3.38;;;;;;;7.62;73.09;98913.19;5030666;28;20048;-71
2021/12/10 10:47:12;;;;;;;11.00;2.35;;;;;;;7.94;74.35;98902.38;5030375;28;20045;-75
2021/12/10 10:49:41;;;;;;;15.05;2.55;;;;;;;8.51;73.95;98910.28;5028587;28;20059;-75
2021/12/10 10:52:12;;;;;;;11.40;3.15;;;;;;;8.93;68.59;98906.56;5023855;28;20049;-76
2021/12/10 10:54:39;;;;;;;10.50;2.33;;;;;;;9.35;68.89;98897.28;5030424;28;20128;-75
2021/12/10 10:57:26;;;;;;;9.75;2.30;;;;;;;9.60;63.88;98892.69;5030543;28;20072;-75
2021/12/10 10:59:57;;;;;;;15.40;2.88;;;;;;;9.76;64.07;98900.16;5030079;28;20053;-76
2021/12/10 11:02:37;;;;;;;12.57;2.40;;;;;;;9.84;61.72;98898.75;5025175;28;20502;-75
2021/12/10 11:05:11;;;;;;;9.25;2.40;;;;;;;10.05;59.97;98892.63;5018906;28;20046;-74
2021/12/10 11:07:51;;;;;;;12.77;2.65;;;;;;;10.77;59.80;98896.47;5033503;28;20053;-74
2021/12/10 11:10:29;;;;;;;12.55;3.90;;;;;;;11.35;57.30;98896.97;5022438;28;20084;-76
2021/12/10 11:13:14;;;;;;;8.20;2.28;;;;;;;10.77;58.71;98898.44;5028828;28;20127;-74
2021/12/10 11:16:04;;;;;;;9.40;2.42;;;;;;;10.63;57.59;98899.66;5033702;28;20049;-75
2021/12/10 11:19:01;;;;;;;10.15;2.45;;;;;;;9.87;59.40;98906.16;5026783;28;20049;-75
2021/12/10 11:21:51;;;;;;;9.00;1.85;;;;;;;9.03;56.21;98911.84;5036292;28;20047;-74
2021/12/10 11:24:20;;;;;;;15.40;2.83;;;;;;;8.74;61.50;98907.41;5026121;28;20470;-74
2021/12/10 11:27:09;;;;;;;6.15;2.25;;;;;;;8.49;64.91;98905.19;5021360;28;20050;-76
2021/12/10 11:29:51;;;;;;;9.70;2.13;;;;;;;8.36;66.02;98904.28;5029194;28;20079;-75
2021/12/10 11:32:41;;;;;;;12.35;2.22;;;;;;;8.23;67.35;98894.34;5024476;28;20056;-75
2021/12/10 11:35:29;;;;;;;16.45;2.90;;;;;;;8.06;67.83;98898.97;5025199;28;20045;-75
2021/12/10 11:38:18;;;;;;;12.38;2.55;;;;;;;7.95;68.48;98895.66;5032892;28;20421;-73
2021/12/10 11:40:52;;;;;;;14.63;3.00;;;;;;;7.91;68.59;98898.47;5028532;28;20050;-77
2021/12/10 11:43:52;;;;;;;11.10;2.28;;;;;;;7.78;68.24;98894.03;5025371;28;20081;-76
2021/12/10 11:46:51;;;;;;;12.60;2.80;;;;;;;7.80;69.85;98886.88;5032339;28;20136;-75
2021/12/10 11:49:26;;;;;;;16.63;2.72;;;;;;;7.76;68.47;98875.16;5029035;28;20527;-76
2021/12/10 11:51:59;;;;;;;10.93;2.60;;;;;;;7.76;69.36;98877.13;5028137;28;20541;-77
2021/12/10 11:54:28;;;;;;;14.13;4.53;;;;;;;7.70;68.52;98879.59;5027464;28;20045;-78
2021/12/10 11:57:10;;;;;;;13.27;3.25;;;;;;;7.72;69.61;98879.19;5037253;28;20085;-75